createdAt,value
2022-10-04T17:58:30.797Z,100526.19
2022-10-04T18:01:07.941Z,100529.06
2022-10-04T18:03:52.581Z,100533.59
2022-10-04T18:06:43.272Z,100524.97
2022-10-04T18:09:22.613Z,100523.31
2022-10-04T18:11:53.152Z,100522.44
2022-10-04T18:14:39.288Z,100523.53
2022-10-04T18:17:10.489Z,100517.56
2022-10-04T18:19:52.420Z,100519.31
2022-10-04T18:22:21.626Z,100511.53
2022-10-04T18:25:08.947Z,100499.34
2022-10-04T18:27:49.498Z,100488.19
2022-10-04T18:30:20.717Z,100492.84
2022-10-04T18:32:52.676Z,100491.16
2022-10-04T18:35:27.161Z,100498.34
2022-10-04T18:37:57.117Z,100490.66
2022-10-04T18:40:27.238Z,100491.75
2022-10-04T18:42:58.989Z,100490.06
2022-10-04T18:45:31.805Z,100495.44
2022-10-04T18:48:14.326Z,100486.81
2022-10-04T18:50:47.456Z,100475.78
2022-10-04T18:53:40.934Z,100467.66
2022-10-04T18:56:09.668Z,100461.44
2022-10-04T18:59:27.366Z,100452.81
2022-10-04T19:02:09.358Z,100459.88
2022-10-04T19:04:46.128Z,100451.97
2022-10-04T19:07:18.399Z,100437.13
2022-10-04T19:09:54.261Z,100429.97
2022-10-04T19:12:45.159Z,100423.84
2022-10-04T19:15:25.389Z,100417.53
2022-10-04T19:18:27.638Z,100414.88
2022-10-04T19:21:23.929Z,100414.78
2022-10-04T19:24:30.390Z,100416.44
2022-10-04T19:27:10.800Z,100413.69
2022-10-04T19:30:14.660Z,100409.13
2022-10-04T19:32:57.686Z,100394.03
2022-10-04T19:35:37.934Z,100399.19
2022-10-04T19:38:23.321Z,100402.56
2022-10-04T19:41:13.514Z,100394.53
2022-10-04T19:44:03.797Z,100398.03
2022-10-04T19:46:53.721Z,100402.19
2022-10-04T19:49:26.312Z,100388.91
2022-10-04T19:52:02.576Z,100397.78
2022-10-04T19:54:40.308Z,100394.19
2022-10-04T19:57:15.617Z,100399.09
2022-10-04T19:59:49.028Z,100396.34
2022-10-04T20:02:17.805Z,100398.72
2022-10-04T20:04:49.454Z,100399.72
2022-10-04T20:07:28.114Z,100378.16
2022-10-04T20:10:16.996Z,100396.09
2022-10-04T20:13:14.044Z,100394.56
2022-10-04T20:15:43.186Z,100388.19
2022-10-04T20:18:32.376Z,100388.47
2022-10-04T20:21:00.570Z,100384.84
2022-10-04T20:23:39.674Z,100383.19
2022-10-04T20:26:53.325Z,100387.59
2022-10-04T20:29:53.776Z,100380.78
2022-10-04T20:32:27.412Z,100388.69
2022-10-04T20:35:00.383Z,100385.06
2022-10-04T20:37:46.020Z,100392.97
2022-10-04T20:40:22.813Z,100394.78
2022-10-04T20:43:15.108Z,100399.22
2022-10-04T20:45:55.655Z,100392.25
2022-10-04T20:48:28.457Z,100381.72
2022-10-04T20:50:57.040Z,100387.00
2022-10-04T20:53:31.056Z,100388.47
2022-10-04T20:56:25.381Z,100387.59
2022-10-04T20:58:56.518Z,100379.56
2022-10-04T21:01:39.422Z,100382.09
2022-10-04T21:04:50.681Z,100376.00
2022-10-04T21:07:23.326Z,100375.03
2022-10-04T21:09:53.933Z,100381.97
2022-10-04T21:12:33.270Z,100373.47
2022-10-04T21:15:17.978Z,100366.06
2022-10-04T21:18:12.624Z,100372.16
2022-10-04T21:20:46.083Z,100369.28
2022-10-04T21:23:32.124Z,100361.38
2022-10-04T21:26:22.060Z,100357.78
2022-10-04T21:28:54.740Z,100348.91
2022-10-04T21:31:22.258Z,100350.13
2022-10-04T21:33:50.109Z,100343.66
2022-10-04T21:36:17.696Z,100343.66
2022-10-04T21:38:45.171Z,100340.19
2022-10-04T21:41:12.643Z,100343.66
2022-10-04T21:43:39.885Z,100343.66
2022-10-04T21:46:07.433Z,100336.72
2022-10-04T21:48:34.648Z,100340.19
2022-10-04T21:51:01.400Z,100341.13
2022-10-04T21:53:28.386Z,100340.31
2022-10-04T21:55:55.240Z,100335.03
2022-10-04T21:58:22.131Z,100327.00
2022-10-04T22:00:49.150Z,100319.94
2022-10-04T22:03:16.213Z,100325.19
2022-10-04T22:05:43.108Z,100315.88
2022-10-04T22:08:09.966Z,100312.16
2022-10-04T22:10:36.968Z,100316.47
2022-10-04T22:13:03.840Z,100310.38
2022-10-04T22:15:30.734Z,100311.19
2022-10-04T22:17:57.728Z,100306.75
2022-10-04T22:20:25.756Z,100301.59
2022-10-04T22:22:57.728Z,100292.88
2022-10-04T22:25:26.908Z,100290.94
2022-10-04T22:27:54.132Z,100293.56
2022-10-04T22:30:23.211Z,100286.53
2022-10-04T22:32:51.140Z,100287.38
2022-10-04T22:35:20.526Z,100277.66
2022-10-04T22:37:48.858Z,100272.38
2022-10-04T22:40:21.697Z,100281.00
2022-10-04T22:42:57.085Z,100294.88
2022-10-04T22:45:27.206Z,100283.50
2022-10-04T22:47:57.236Z,100297.41
2022-10-04T22:50:36.218Z,100307.81
2022-10-04T22:53:17.020Z,100299.91
2022-10-04T22:55:43.818Z,100301.59
2022-10-04T22:58:14.959Z,100300.78
2022-10-04T23:00:43.053Z,100301.84
2022-10-04T23:03:25.023Z,100300.41
2022-10-04T23:05:51.914Z,100303.19
2022-10-04T23:08:18.759Z,100285.91
2022-10-04T23:10:46.368Z,100280.66
2022-10-04T23:13:13.258Z,100285.91
2022-10-04T23:15:40.328Z,100294.09
2022-10-04T23:18:16.115Z,100290.00
2022-10-04T23:20:44.194Z,100290.00
2022-10-04T23:23:21.486Z,100299.72
2022-10-04T23:25:49.493Z,100293.84
2022-10-04T23:28:19.487Z,100300.94
2022-10-04T23:30:55.783Z,100293.25
2022-10-04T23:33:24.156Z,100297.69
2022-10-04T23:35:51.560Z,100294.31
2022-10-04T23:38:21.462Z,100302.97
2022-10-04T23:40:48.301Z,100298.75
2022-10-04T23:43:25.302Z,100296.25
2022-10-04T23:45:53.991Z,100291.09
2022-10-04T23:48:32.451Z,100285.00
2022-10-04T23:51:01.073Z,100293.84
2022-10-04T23:53:30.849Z,100300.91
2022-10-04T23:56:01.992Z,100285.63
2022-10-04T23:58:39.521Z,100282.97
